Hovedside
METAR-TAF:

METAR-TAF

Lufthavner :

Karleby, Finland

Kronoby lufthavn

breddegrad: 63-43N, lengdegrad: 023-09E, høyde over havet: 25 m

Gjeldene værobservasjon

Denne rapporten ble laget for 20 minutter siden, klokken 04:20 UTC
Vind 5 kt fra Øst
Temperatur 0°C
Luftfuktighet 86%
Trykk 1005 hPa
Sikt 10 km eller mer
ingen skyer under 1500 m og ingen bygeskyer

METAR: EFKK 250420Z AUTO 09005KT CAVOK 00/M02 Q1005

Tid: 07:40 (04:40 UTC)

Varsel

Denne rapporten ble laget for 2 timer og 12 minutter siden, klokken 02:28 UTC
Varsel gyldig fra 25. klokken 03 UTC til 25. klokken 12 UTC
Vind 9 kt fra Øst
Sikt 10 km eller mer
ingen skyer under 1500 m og ingen bygeskyer

TAF: EFKK 250228Z 2503/2512 09009KT CAVOK

Værobservasjoner og værvarsel for over 4000 flyplasser (METAR- og TAF-rapporter).

Tilgjengelige stasjoner er representert av de røde og gule prikkene på kartet.

Hold musepekeren over prikken for å se navnet på stasjonen.

Klikk så for å se værobservasjoner og -varsler.

For å forandre kartet kan du klikke på den grønne knappen med svart kryss for å zoome inn, på den grønne knappen med strek for å zoome ut, eller på de grønne pilene for å se tilstøtende kart.


METAR-TAF: